Airport View

Enter AWOS ICAO identifier for current METAR.

ex. KFNL

KPRO 210055Z AUTO 14005KT 10SM CLR 25/20 A2994 RMK AO2 T02450200

21 Sep 2019 01:00

Frequency: 118.0

Phone: 515-465-2269

Other Area AWOS: KBNW - KAMW - KIKV - KDSM

TAF AMD KDSM 210005Z 2100/2124 15010KT P6SM SCT050 FM210100 16008KT P6SM FEW250 FM210700 17009KT P6SM VCSH SCT011 BKN030 FM211100 18012G18KT 5SM -TSRA SCT008 OVC011CB FM211500 20015G26KT P6SM VCSH OVC015 FM212100 20014G25KT 5SM -TSRA OVC020CB